sensor_id;sensor_type;location;lat;lon;timestamp;P1;durP1;ratioP1;P2;durP2;ratioP2
68888;SDS011;55930;47.412;8.790;2022-10-26T00:00:24;8.98;;;3.15;;
68888;SDS011;55930;47.412;8.790;2022-10-26T00:02:55;9.32;;;2.40;;
68888;SDS011;55930;47.412;8.790;2022-10-26T00:05:21;9.13;;;1.90;;
68888;SDS011;55930;47.412;8.790;2022-10-26T00:07:48;6.88;;;2.13;;
68888;SDS011;55930;47.412;8.790;2022-10-26T00:10:13;12.60;;;2.38;;
68888;SDS011;55930;47.412;8.790;2022-10-26T00:12:39;9.88;;;2.03;;
68888;SDS011;55930;47.412;8.790;2022-10-26T00:15:05;6.50;;;2.17;;
68888;SDS011;55930;47.412;8.790;2022-10-26T00:17:31;8.10;;;1.80;;
68888;SDS011;55930;47.412;8.790;2022-10-26T00:19:56;3.40;;;1.70;;
68888;SDS011;55930;47.412;8.790;2022-10-26T00:22:22;4.20;;;1.70;;
68888;SDS011;55930;47.412;8.790;2022-10-26T00:24:48;5.10;;;1.40;;
68888;SDS011;55930;47.412;8.790;2022-10-26T00:27:13;9.23;;;2.08;;
68888;SDS011;55930;47.412;8.790;2022-10-26T00:29:39;6.13;;;2.08;;
68888;SDS011;55930;47.412;8.790;2022-10-26T00:32:04;4.25;;;1.92;;
68888;SDS011;55930;47.412;8.790;2022-10-26T00:34:32;8.07;;;2.22;;
68888;SDS011;55930;47.412;8.790;2022-10-26T00:36:57;3.88;;;1.95;;
68888;SDS011;55930;47.412;8.790;2022-10-26T00:39:22;5.93;;;2.22;;
68888;SDS011;55930;47.412;8.790;2022-10-26T00:41:48;7.00;;;2.40;;
68888;SDS011;55930;47.412;8.790;2022-10-26T00:47:14;6.35;;;2.42;;
68888;SDS011;55930;47.412;8.790;2022-10-26T00:49:41;14.25;;;2.20;;
68888;SDS011;55930;47.412;8.790;2022-10-26T00:52:10;5.13;;;2.47;;
68888;SDS011;55930;47.412;8.790;2022-10-26T00:54:37;8.30;;;2.30;;
68888;SDS011;55930;47.412;8.790;2022-10-26T00:57:03;8.77;;;2.25;;
68888;SDS011;55930;47.412;8.790;2022-10-26T00:59:29;7.72;;;2.25;;
68888;SDS011;55930;47.412;8.790;2022-10-26T01:01:55;8.50;;;1.90;;
68888;SDS011;55930;47.412;8.790;2022-10-26T01:04:20;5.15;;;2.30;;
68888;SDS011;55930;47.412;8.790;2022-10-26T01:06:46;6.25;;;1.80;;
68888;SDS011;55930;47.412;8.790;2022-10-26T01:09:13;11.65;;;1.70;;
68888;SDS011;55930;47.412;8.790;2022-10-26T01:11:38;7.20;;;1.60;;
68888;SDS011;55930;47.412;8.790;2022-10-26T01:14:06;6.10;;;1.65;;
68888;SDS011;55930;47.412;8.790;2022-10-26T01:22:08;5.40;;;1.65;;
68888;SDS011;55930;47.412;8.790;2022-10-26T01:43:23;4.03;;;1.30;;
68888;SDS011;55930;47.412;8.790;2022-10-26T01:48:20;7.95;;;1.40;;
68888;SDS011;55930;47.412;8.790;2022-10-26T01:50:49;5.22;;;1.65;;
68888;SDS011;55930;47.412;8.790;2022-10-26T01:53:19;10.50;;;2.15;;
68888;SDS011;55930;47.412;8.790;2022-10-26T02:04:01;12.55;;;4.15;;
68888;SDS011;55930;47.412;8.790;2022-10-26T02:06:44;7.80;;;5.28;;
68888;SDS011;55930;47.412;8.790;2022-10-26T02:09:22;10.88;;;5.60;;
68888;SDS011;55930;47.412;8.790;2022-10-26T02:12:16;10.20;;;6.78;;
68888;SDS011;55930;47.412;8.790;2022-10-26T02:14:46;9.68;;;5.57;;
68888;SDS011;55930;47.412;8.790;2022-10-26T02:17:27;8.48;;;5.88;;
68888;SDS011;55930;47.412;8.790;2022-10-26T02:20:03;7.88;;;5.85;;
68888;SDS011;55930;47.412;8.790;2022-10-26T02:22:32;7.82;;;6.32;;
68888;SDS011;55930;47.412;8.790;2022-10-26T02:25:06;8.77;;;6.72;;
68888;SDS011;55930;47.412;8.790;2022-10-26T02:27:39;7.47;;;6.20;;
68888;SDS011;55930;47.412;8.790;2022-10-26T02:30:10;8.57;;;5.43;;
68888;SDS011;55930;47.412;8.790;2022-10-26T02:32:40;8.82;;;5.95;;
68888;SDS011;55930;47.412;8.790;2022-10-26T02:35:10;11.57;;;6.90;;
68888;SDS011;55930;47.412;8.790;2022-10-26T02:37:38;7.15;;;5.97;;
68888;SDS011;55930;47.412;8.790;2022-10-26T02:40:08;9.02;;;6.88;;
68888;SDS011;55930;47.412;8.790;2022-10-26T02:42:38;7.18;;;6.32;;
68888;SDS011;55930;47.412;8.790;2022-10-26T02:45:08;10.48;;;6.78;;
68888;SDS011;55930;47.412;8.790;2022-10-26T02:47:37;9.07;;;6.40;;
68888;SDS011;55930;47.412;8.790;2022-10-26T02:50:02;7.75;;;6.57;;
68888;SDS011;55930;47.412;8.790;2022-10-26T02:57:37;8.65;;;6.53;;
68888;SDS011;55930;47.412;8.790;2022-10-26T03:00:08;11.20;;;6.38;;
68888;SDS011;55930;47.412;8.790;2022-10-26T03:02:38;8.48;;;6.65;;
68888;SDS011;55930;47.412;8.790;2022-10-26T03:05:12;8.68;;;5.70;;
68888;SDS011;55930;47.412;8.790;2022-10-26T03:07:41;8.82;;;5.40;;
68888;SDS011;55930;47.412;8.790;2022-10-26T03:10:07;11.55;;;6.03;;
68888;SDS011;55930;47.412;8.790;2022-10-26T03:12:33;10.60;;;5.80;;
68888;SDS011;55930;47.412;8.790;2022-10-26T03:15:01;6.82;;;5.90;;
68888;SDS011;55930;47.412;8.790;2022-10-26T03:17:29;8.98;;;6.45;;
68888;SDS011;55930;47.412;8.790;2022-10-26T03:19:54;8.50;;;6.45;;
68888;SDS011;55930;47.412;8.790;2022-10-26T03:22:22;9.70;;;6.20;;
68888;SDS011;55930;47.412;8.790;2022-10-26T03:24:47;15.38;;;6.80;;
68888;SDS011;55930;47.412;8.790;2022-10-26T03:27:15;7.38;;;6.32;;
68888;SDS011;55930;47.412;8.790;2022-10-26T03:29:44;16.38;;;6.80;;
68888;SDS011;55930;47.412;8.790;2022-10-26T03:32:09;13.70;;;6.90;;
68888;SDS011;55930;47.412;8.790;2022-10-26T03:34:34;11.35;;;6.55;;
68888;SDS011;55930;47.412;8.790;2022-10-26T03:37:00;12.38;;;6.43;;
68888;SDS011;55930;47.412;8.790;2022-10-26T03:39:25;12.00;;;6.32;;
68888;SDS011;55930;47.412;8.790;2022-10-26T03:41:51;10.38;;;6.00;;
68888;SDS011;55930;47.412;8.790;2022-10-26T03:44:16;13.90;;;5.80;;
68888;SDS011;55930;47.412;8.790;2022-10-26T03:46:41;9.48;;;5.10;;
68888;SDS011;55930;47.412;8.790;2022-10-26T03:49:07;8.25;;;4.65;;
68888;SDS011;55930;47.412;8.790;2022-10-26T03:51:32;6.10;;;3.85;;
68888;SDS011;55930;47.412;8.790;2022-10-26T03:53:58;5.82;;;4.10;;
68888;SDS011;55930;47.412;8.790;2022-10-26T03:56:23;5.03;;;2.90;;
68888;SDS011;55930;47.412;8.790;2022-10-26T03:58:48;7.47;;;3.13;;
68888;SDS011;55930;47.412;8.790;2022-10-26T04:01:14;5.78;;;2.55;;
68888;SDS011;55930;47.412;8.790;2022-10-26T04:03:39;4.75;;;2.53;;
68888;SDS011;55930;47.412;8.790;2022-10-26T04:06:07;3.60;;;2.10;;
68888;SDS011;55930;47.412;8.790;2022-10-26T04:08:32;8.90;;;2.55;;
68888;SDS011;55930;47.412;8.790;2022-10-26T04:10:58;10.07;;;2.58;;
68888;SDS011;55930;47.412;8.790;2022-10-26T04:13:25;7.25;;;2.35;;
68888;SDS011;55930;47.412;8.790;2022-10-26T04:15:51;5.22;;;2.53;;
68888;SDS011;55930;47.412;8.790;2022-10-26T04:18:16;5.07;;;2.30;;
68888;SDS011;55930;47.412;8.790;2022-10-26T04:20:41;5.50;;;2.33;;
68888;SDS011;55930;47.412;8.790;2022-10-26T04:23:09;5.18;;;2.53;;
68888;SDS011;55930;47.412;8.790;2022-10-26T04:25:36;6.80;;;2.83;;
68888;SDS011;55930;47.412;8.790;2022-10-26T04:28:05;7.00;;;2.72;;
68888;SDS011;55930;47.412;8.790;2022-10-26T04:30:32;7.07;;;2.67;;
68888;SDS011;55930;47.412;8.790;2022-10-26T04:32:58;4.97;;;2.50;;
68888;SDS011;55930;47.412;8.790;2022-10-26T04:35:23;6.20;;;2.38;;
68888;SDS011;55930;47.412;8.790;2022-10-26T04:37:58;5.90;;;2.17;;
68888;SDS011;55930;47.412;8.790;2022-10-26T04:40:24;6.20;;;1.90;;
68888;SDS011;55930;47.412;8.790;2022-10-26T04:42:50;7.93;;;2.05;;
68888;SDS011;55930;47.412;8.790;2022-10-26T04:45:16;7.38;;;2.40;;
68888;SDS011;55930;47.412;8.790;2022-10-26T04:47:41;8.18;;;2.50;;
68888;SDS011;55930;47.412;8.790;2022-10-26T04:50:07;14.95;;;2.42;;
68888;SDS011;55930;47.412;8.790;2022-10-26T04:52:36;7.63;;;2.75;;
68888;SDS011;55930;47.412;8.790;2022-10-26T04:55:04;3.95;;;1.85;;
68888;SDS011;55930;47.412;8.790;2022-10-26T04:57:33;8.65;;;1.92;;
68888;SDS011;55930;47.412;8.790;2022-10-26T05:00:00;5.75;;;2.10;;
68888;SDS011;55930;47.412;8.790;2022-10-26T05:02:26;5.72;;;2.10;;
68888;SDS011;55930;47.412;8.790;2022-10-26T05:04:54;5.68;;;1.95;;
68888;SDS011;55930;47.412;8.790;2022-10-26T05:07:19;11.88;;;2.30;;
68888;SDS011;55930;47.412;8.790;2022-10-26T05:09:45;6.05;;;2.28;;
68888;SDS011;55930;47.412;8.790;2022-10-26T05:12:15;7.43;;;2.50;;
68888;SDS011;55930;47.412;8.790;2022-10-26T05:14:41;7.72;;;2.88;;
68888;SDS011;55930;47.412;8.790;2022-10-26T05:17:09;8.27;;;2.60;;
68888;SDS011;55930;47.412;8.790;2022-10-26T05:19:34;8.07;;;2.80;;
68888;SDS011;55930;47.412;8.790;2022-10-26T05:21:59;11.15;;;2.50;;
68888;SDS011;55930;47.412;8.790;2022-10-26T05:24:25;7.35;;;2.63;;
68888;SDS011;55930;47.412;8.790;2022-10-26T05:26:50;6.10;;;2.80;;
68888;SDS011;55930;47.412;8.790;2022-10-26T05:29:16;5.07;;;2.60;;
68888;SDS011;55930;47.412;8.790;2022-10-26T05:31:41;6.70;;;3.42;;
68888;SDS011;55930;47.412;8.790;2022-10-26T05:34:06;4.93;;;3.38;;
68888;SDS011;55930;47.412;8.790;2022-10-26T05:36:32;10.75;;;3.58;;
68888;SDS011;55930;47.412;8.790;2022-10-26T05:38:57;4.90;;;3.28;;
68888;SDS011;55930;47.412;8.790;2022-10-26T05:41:23;6.05;;;2.42;;
68888;SDS011;55930;47.412;8.790;2022-10-26T05:43:49;11.38;;;3.60;;
68888;SDS011;55930;47.412;8.790;2022-10-26T05:46:14;7.20;;;2.30;;
68888;SDS011;55930;47.412;8.790;2022-10-26T05:48:40;6.72;;;2.50;;
68888;SDS011;55930;47.412;8.790;2022-10-26T05:51:08;5.65;;;2.70;;
68888;SDS011;55930;47.412;8.790;2022-10-26T05:53:36;10.02;;;2.25;;
68888;SDS011;55930;47.412;8.790;2022-10-26T05:56:02;5.30;;;2.10;;
68888;SDS011;55930;47.412;8.790;2022-10-26T05:58:39;7.15;;;1.90;;
68888;SDS011;55930;47.412;8.790;2022-10-26T06:01:29;6.80;;;2.60;;
68888;SDS011;55930;47.412;8.790;2022-10-26T06:04:41;6.20;;;2.03;;
68888;SDS011;55930;47.412;8.790;2022-10-26T06:07:02;4.57;;;2.00;;
68888;SDS011;55930;47.412;8.790;2022-10-26T06:09:29;5.20;;;2.20;;
68888;SDS011;55930;47.412;8.790;2022-10-26T06:11:54;8.75;;;1.77;;
68888;SDS011;55930;47.412;8.790;2022-10-26T06:14:25;8.38;;;2.53;;
68888;SDS011;55930;47.412;8.790;2022-10-26T06:16:58;5.53;;;1.92;;
68888;SDS011;55930;47.412;8.790;2022-10-26T06:24:57;8.13;;;2.03;;
68888;SDS011;55930;47.412;8.790;2022-10-26T06:27:37;6.97;;;2.08;;
68888;SDS011;55930;47.412;8.790;2022-10-26T06:30:08;8.13;;;2.17;;
68888;SDS011;55930;47.412;8.790;2022-10-26T06:32:35;6.40;;;2.28;;
68888;SDS011;55930;47.412;8.790;2022-10-26T06:35:21;7.50;;;2.30;;
68888;SDS011;55930;47.412;8.790;2022-10-26T06:37:58;10.48;;;2.58;;
68888;SDS011;55930;47.412;8.790;2022-10-26T06:40:27;11.00;;;2.35;;
68888;SDS011;55930;47.412;8.790;2022-10-26T06:42:56;6.95;;;2.40;;
68888;SDS011;55930;47.412;8.790;2022-10-26T06:45:28;13.00;;;2.17;;
68888;SDS011;55930;47.412;8.790;2022-10-26T06:51:06;9.80;;;2.53;;
68888;SDS011;55930;47.412;8.790;2022-10-26T06:55:59;9.63;;;1.83;;
68888;SDS011;55930;47.412;8.790;2022-10-26T06:58:30;4.70;;;1.90;;
68888;SDS011;55930;47.412;8.790;2022-10-26T07:00:59;8.23;;;2.05;;
68888;SDS011;55930;47.412;8.790;2022-10-26T07:03:24;5.25;;;1.90;;
68888;SDS011;55930;47.412;8.790;2022-10-26T07:05:50;12.63;;;2.30;;
68888;SDS011;55930;47.412;8.790;2022-10-26T07:08:16;6.70;;;2.30;;
68888;SDS011;55930;47.412;8.790;2022-10-26T07:10:41;6.15;;;2.33;;
68888;SDS011;55930;47.412;8.790;2022-10-26T07:15:39;7.07;;;2.40;;
68888;SDS011;55930;47.412;8.790;2022-10-26T07:18:07;8.32;;;1.73;;
68888;SDS011;55930;47.412;8.790;2022-10-26T07:20:36;4.63;;;1.58;;
68888;SDS011;55930;47.412;8.790;2022-10-26T07:23:04;8.10;;;2.10;;
68888;SDS011;55930;47.412;8.790;2022-10-26T07:25:31;6.78;;;2.30;;
68888;SDS011;55930;47.412;8.790;2022-10-26T07:27:57;9.65;;;4.85;;
68888;SDS011;55930;47.412;8.790;2022-10-26T07:30:23;7.90;;;4.13;;
68888;SDS011;55930;47.412;8.790;2022-10-26T07:32:50;10.27;;;3.58;;
68888;SDS011;55930;47.412;8.790;2022-10-26T07:35:22;8.52;;;3.00;;
68888;SDS011;55930;47.412;8.790;2022-10-26T07:37:50;9.52;;;2.53;;
68888;SDS011;55930;47.412;8.790;2022-10-26T07:40:15;7.43;;;2.00;;
68888;SDS011;55930;47.412;8.790;2022-10-26T07:42:40;10.65;;;2.50;;
68888;SDS011;55930;47.412;8.790;2022-10-26T07:45:06;5.93;;;1.77;;
68888;SDS011;55930;47.412;8.790;2022-10-26T07:47:31;5.95;;;1.70;;
68888;SDS011;55930;47.412;8.790;2022-10-26T07:49:57;6.20;;;1.73;;
68888;SDS011;55930;47.412;8.790;2022-10-26T07:52:22;4.75;;;1.60;;
68888;SDS011;55930;47.412;8.790;2022-10-26T07:54:48;14.50;;;1.77;;
68888;SDS011;55930;47.412;8.790;2022-10-26T07:57:14;5.05;;;1.55;;
68888;SDS011;55930;47.412;8.790;2022-10-26T07:59:41;3.38;;;1.55;;
68888;SDS011;55930;47.412;8.790;2022-10-26T08:02:07;4.03;;;1.40;;
68888;SDS011;55930;47.412;8.790;2022-10-26T08:04:33;10.85;;;2.22;;
68888;SDS011;55930;47.412;8.790;2022-10-26T08:07:01;6.13;;;1.65;;
68888;SDS011;55930;47.412;8.790;2022-10-26T08:09:29;5.78;;;1.40;;
68888;SDS011;55930;47.412;8.790;2022-10-26T08:11:54;4.18;;;2.05;;
68888;SDS011;55930;47.412;8.790;2022-10-26T08:14:19;4.78;;;1.65;;
68888;SDS011;55930;47.412;8.790;2022-10-26T08:16:45;4.95;;;1.77;;
68888;SDS011;55930;47.412;8.790;2022-10-26T08:19:12;3.90;;;1.73;;
68888;SDS011;55930;47.412;8.790;2022-10-26T08:21:37;6.82;;;1.75;;
68888;SDS011;55930;47.412;8.790;2022-10-26T08:24:02;7.90;;;1.50;;
68888;SDS011;55930;47.412;8.790;2022-10-26T08:26:28;6.15;;;1.20;;
68888;SDS011;55930;47.412;8.790;2022-10-26T08:28:54;6.25;;;1.83;;
68888;SDS011;55930;47.412;8.790;2022-10-26T08:31:20;5.97;;;2.03;;
68888;SDS011;55930;47.412;8.790;2022-10-26T08:33:46;10.38;;;1.70;;
68888;SDS011;55930;47.412;8.790;2022-10-26T08:36:12;6.90;;;1.52;;
68888;SDS011;55930;47.412;8.790;2022-10-26T08:38:47;4.13;;;1.67;;
68888;SDS011;55930;47.412;8.790;2022-10-26T08:41:12;5.07;;;1.55;;
68888;SDS011;55930;47.412;8.790;2022-10-26T08:43:44;5.72;;;1.48;;
68888;SDS011;55930;47.412;8.790;2022-10-26T08:48:43;7.25;;;1.70;;
68888;SDS011;55930;47.412;8.790;2022-10-26T08:51:18;6.75;;;1.90;;
68888;SDS011;55930;47.412;8.790;2022-10-26T08:56:57;13.13;;;3.65;;
68888;SDS011;55930;47.412;8.790;2022-10-26T09:02:30;6.43;;;1.70;;
68888;SDS011;55930;47.412;8.790;2022-10-26T09:04:56;7.50;;;1.85;;
68888;SDS011;55930;47.412;8.790;2022-10-26T09:10:12;4.45;;;1.73;;
68888;SDS011;55930;47.412;8.790;2022-10-26T09:13:03;4.55;;;1.85;;
68888;SDS011;55930;47.412;8.790;2022-10-26T09:18:35;5.05;;;1.65;;
68888;SDS011;55930;47.412;8.790;2022-10-26T09:24:13;4.63;;;1.70;;
68888;SDS011;55930;47.412;8.790;2022-10-26T09:29:02;6.47;;;2.53;;
68888;SDS011;55930;47.412;8.790;2022-10-26T09:31:29;8.48;;;1.90;;
68888;SDS011;55930;47.412;8.790;2022-10-26T09:34:02;6.43;;;1.80;;
68888;SDS011;55930;47.412;8.790;2022-10-26T09:36:30;5.70;;;1.90;;
68888;SDS011;55930;47.412;8.790;2022-10-26T09:39:10;3.47;;;1.63;;
68888;SDS011;55930;47.412;8.790;2022-10-26T09:41:39;8.35;;;1.85;;
68888;SDS011;55930;47.412;8.790;2022-10-26T09:50:01;4.25;;;1.80;;
68888;SDS011;55930;47.412;8.790;2022-10-26T09:52:49;5.70;;;1.52;;
68888;SDS011;55930;47.412;8.790;2022-10-26T09:55:14;5.95;;;1.92;;
68888;SDS011;55930;47.412;8.790;2022-10-26T09:57:46;2.75;;;1.63;;
68888;SDS011;55930;47.412;8.790;2022-10-26T10:00:19;5.70;;;1.50;;
68888;SDS011;55930;47.412;8.790;2022-10-26T10:02:49;3.15;;;1.65;;
68888;SDS011;55930;47.412;8.790;2022-10-26T10:07:48;3.10;;;1.58;;
68888;SDS011;55930;47.412;8.790;2022-10-26T10:10:17;4.55;;;1.45;;
68888;SDS011;55930;47.412;8.790;2022-10-26T10:12:47;2.40;;;1.30;;
68888;SDS011;55930;47.412;8.790;2022-10-26T10:17:43;3.60;;;1.33;;
68888;SDS011;55930;47.412;8.790;2022-10-26T10:20:23;6.63;;;1.77;;
68888;SDS011;55930;47.412;8.790;2022-10-26T10:22:58;3.72;;;1.75;;
68888;SDS011;55930;47.412;8.790;2022-10-26T10:25:34;4.40;;;1.90;;
68888;SDS011;55930;47.412;8.790;2022-10-26T10:28:19;4.07;;;1.60;;
68888;SDS011;55930;47.412;8.790;2022-10-26T10:30:53;6.43;;;1.60;;
68888;SDS011;55930;47.412;8.790;2022-10-26T10:36:03;3.22;;;1.65;;
68888;SDS011;55930;47.412;8.790;2022-10-26T10:38:36;3.17;;;1.40;;
68888;SDS011;55930;47.412;8.790;2022-10-26T10:41:03;4.20;;;1.70;;
68888;SDS011;55930;47.412;8.790;2022-10-26T10:43:30;4.60;;;1.25;;
68888;SDS011;55930;47.412;8.790;2022-10-26T10:45:59;4.25;;;1.50;;
68888;SDS011;55930;47.412;8.790;2022-10-26T10:48:28;3.35;;;1.52;;
68888;SDS011;55930;47.412;8.790;2022-10-26T10:50:58;4.00;;;1.35;;
68888;SDS011;55930;47.412;8.790;2022-10-26T10:53:46;6.95;;;1.73;;
68888;SDS011;55930;47.412;8.790;2022-10-26T11:01:29;6.18;;;1.52;;
68888;SDS011;55930;47.412;8.790;2022-10-26T11:04:20;7.55;;;1.88;;
68888;SDS011;55930;47.412;8.790;2022-10-26T11:07:12;6.85;;;2.30;;
68888;SDS011;55930;47.412;8.790;2022-10-26T11:09:42;2.88;;;1.50;;
68888;SDS011;55930;47.412;8.790;2022-10-26T11:12:18;3.90;;;1.95;;
68888;SDS011;55930;47.412;8.790;2022-10-26T11:14:54;7.20;;;2.00;;
68888;SDS011;55930;47.412;8.790;2022-10-26T11:17:27;6.88;;;2.50;;
68888;SDS011;55930;47.412;8.790;2022-10-26T11:22:26;5.07;;;1.98;;
68888;SDS011;55930;47.412;8.790;2022-10-26T11:24:59;4.57;;;1.98;;
68888;SDS011;55930;47.412;8.790;2022-10-26T11:27:38;8.10;;;2.25;;
68888;SDS011;55930;47.412;8.790;2022-10-26T11:30:17;6.85;;;2.20;;
68888;SDS011;55930;47.412;8.790;2022-10-26T11:35:44;7.05;;;2.17;;
68888;SDS011;55930;47.412;8.790;2022-10-26T11:38:18;4.65;;;1.95;;
68888;SDS011;55930;47.412;8.790;2022-10-26T11:40:47;6.70;;;2.35;;
68888;SDS011;55930;47.412;8.790;2022-10-26T11:51:36;8.63;;;2.35;;
68888;SDS011;55930;47.412;8.790;2022-10-26T11:54:30;11.07;;;2.72;;
68888;SDS011;55930;47.412;8.790;2022-10-26T11:57:00;5.72;;;1.95;;
68888;SDS011;55930;47.412;8.790;2022-10-26T11:59:52;10.73;;;3.20;;
68888;SDS011;55930;47.412;8.790;2022-10-26T12:02:26;8.77;;;2.13;;
68888;SDS011;55930;47.412;8.790;2022-10-26T12:04:58;8.80;;;2.28;;
68888;SDS011;55930;47.412;8.790;2022-10-26T12:07:31;7.10;;;2.30;;
68888;SDS011;55930;47.412;8.790;2022-10-26T12:10:00;7.90;;;2.00;;
68888;SDS011;55930;47.412;8.790;2022-10-26T12:12:45;6.63;;;2.95;;
68888;SDS011;55930;47.412;8.790;2022-10-26T12:15:31;4.60;;;1.95;;
68888;SDS011;55930;47.412;8.790;2022-10-26T12:23:21;9.73;;;2.97;;
68888;SDS011;55930;47.412;8.790;2022-10-26T12:25:47;7.60;;;2.15;;
68888;SDS011;55930;47.412;8.790;2022-10-26T12:28:58;6.32;;;2.35;;
68888;SDS011;55930;47.412;8.790;2022-10-26T12:36:47;9.38;;;2.30;;
68888;SDS011;55930;47.412;8.790;2022-10-26T12:44:36;6.07;;;2.22;;
68888;SDS011;55930;47.412;8.790;2022-10-26T12:50:17;5.22;;;2.75;;
68888;SDS011;55930;47.412;8.790;2022-10-26T12:53:32;6.63;;;2.22;;
68888;SDS011;55930;47.412;8.790;2022-10-26T13:09:26;8.88;;;2.13;;
68888;SDS011;55930;47.412;8.790;2022-10-26T13:11:57;7.88;;;2.15;;
68888;SDS011;55930;47.412;8.790;2022-10-26T13:17:00;7.15;;;2.00;;
68888;SDS011;55930;47.412;8.790;2022-10-26T13:19:44;6.80;;;2.00;;
68888;SDS011;55930;47.412;8.790;2022-10-26T13:22:19;7.03;;;1.88;;
68888;SDS011;55930;47.412;8.790;2022-10-26T13:25:04;7.97;;;2.42;;
68888;SDS011;55930;47.412;8.790;2022-10-26T13:32:27;7.82;;;2.47;;
68888;SDS011;55930;47.412;8.790;2022-10-26T13:35:01;7.63;;;2.38;;
68888;SDS011;55930;47.412;8.790;2022-10-26T13:37:31;9.90;;;2.83;;
68888;SDS011;55930;47.412;8.790;2022-10-26T13:39:58;10.55;;;2.67;;
68888;SDS011;55930;47.412;8.790;2022-10-26T13:42:31;7.22;;;2.28;;
68888;SDS011;55930;47.412;8.790;2022-10-26T13:45:06;9.45;;;2.80;;
68888;SDS011;55930;47.412;8.790;2022-10-26T13:47:47;11.10;;;3.03;;
68888;SDS011;55930;47.412;8.790;2022-10-26T13:50:21;9.23;;;2.60;;
68888;SDS011;55930;47.412;8.790;2022-10-26T13:52:50;11.25;;;2.80;;
68888;SDS011;55930;47.412;8.790;2022-10-26T13:55:28;8.88;;;2.17;;
68888;SDS011;55930;47.412;8.790;2022-10-26T14:00:33;9.18;;;2.53;;
68888;SDS011;55930;47.412;8.790;2022-10-26T14:02:59;7.45;;;2.30;;
68888;SDS011;55930;47.412;8.790;2022-10-26T14:05:24;6.90;;;2.03;;
68888;SDS011;55930;47.412;8.790;2022-10-26T14:07:59;9.02;;;2.47;;
68888;SDS011;55930;47.412;8.790;2022-10-26T14:12:50;7.15;;;2.15;;
68888;SDS011;55930;47.412;8.790;2022-10-26T14:15:17;11.35;;;2.80;;
68888;SDS011;55930;47.412;8.790;2022-10-26T14:17:49;10.00;;;2.63;;
68888;SDS011;55930;47.412;8.790;2022-10-26T14:20:19;7.30;;;2.80;;
68888;SDS011;55930;47.412;8.790;2022-10-26T14:22:48;8.05;;;2.38;;
68888;SDS011;55930;47.412;8.790;2022-10-26T14:25:16;6.80;;;2.33;;
68888;SDS011;55930;47.412;8.790;2022-10-26T14:27:43;9.73;;;3.08;;
68888;SDS011;55930;47.412;8.790;2022-10-26T14:30:28;9.48;;;2.63;;
68888;SDS011;55930;47.412;8.790;2022-10-26T14:32:57;7.63;;;2.10;;
68888;SDS011;55930;47.412;8.790;2022-10-26T14:35:27;11.95;;;2.65;;
68888;SDS011;55930;47.412;8.790;2022-10-26T14:40:33;10.68;;;2.30;;
68888;SDS011;55930;47.412;8.790;2022-10-26T14:43:00;12.02;;;2.35;;
68888;SDS011;55930;47.412;8.790;2022-10-26T14:45:32;11.40;;;2.70;;
68888;SDS011;55930;47.412;8.790;2022-10-26T14:48:00;15.95;;;3.28;;
68888;SDS011;55930;47.412;8.790;2022-10-26T14:50:27;9.60;;;2.42;;
68888;SDS011;55930;47.412;8.790;2022-10-26T14:53:03;10.43;;;1.98;;
68888;SDS011;55930;47.412;8.790;2022-10-26T14:55:47;8.85;;;3.40;;
68888;SDS011;55930;47.412;8.790;2022-10-26T14:58:16;15.73;;;2.33;;
68888;SDS011;55930;47.412;8.790;2022-10-26T15:03:50;7.88;;;2.03;;
68888;SDS011;55930;47.412;8.790;2022-10-26T15:06:27;8.02;;;2.00;;
68888;SDS011;55930;47.412;8.790;2022-10-26T15:08:56;11.35;;;2.10;;
68888;SDS011;55930;47.412;8.790;2022-10-26T15:11:47;10.30;;;3.28;;
68888;SDS011;55930;47.412;8.790;2022-10-26T15:14:15;10.93;;;2.55;;
68888;SDS011;55930;47.412;8.790;2022-10-26T15:16:48;8.82;;;2.80;;
68888;SDS011;55930;47.412;8.790;2022-10-26T15:19:34;13.25;;;2.67;;
68888;SDS011;55930;47.412;8.790;2022-10-26T15:22:01;14.40;;;2.60;;
68888;SDS011;55930;47.412;8.790;2022-10-26T15:24:36;12.57;;;2.05;;
68888;SDS011;55930;47.412;8.790;2022-10-26T15:27:03;9.75;;;2.15;;
68888;SDS011;55930;47.412;8.790;2022-10-26T15:32:35;8.77;;;2.50;;
68888;SDS011;55930;47.412;8.790;2022-10-26T15:37:38;23.92;;;2.88;;
68888;SDS011;55930;47.412;8.790;2022-10-26T15:40:04;9.70;;;2.53;;
68888;SDS011;55930;47.412;8.790;2022-10-26T15:42:41;14.85;;;2.50;;
68888;SDS011;55930;47.412;8.790;2022-10-26T15:47:49;9.95;;;2.83;;
68888;SDS011;55930;47.412;8.790;2022-10-26T15:50:19;11.02;;;2.80;;
68888;SDS011;55930;47.412;8.790;2022-10-26T15:52:58;11.95;;;2.97;;
68888;SDS011;55930;47.412;8.790;2022-10-26T15:55:37;14.10;;;2.90;;
68888;SDS011;55930;47.412;8.790;2022-10-26T15:58:04;14.80;;;2.40;;
68888;SDS011;55930;47.412;8.790;2022-10-26T16:00:29;11.32;;;2.35;;
68888;SDS011;55930;47.412;8.790;2022-10-26T16:02:55;9.93;;;2.80;;
68888;SDS011;55930;47.412;8.790;2022-10-26T16:05:21;14.82;;;2.58;;
68888;SDS011;55930;47.412;8.790;2022-10-26T16:07:51;12.73;;;2.25;;
68888;SDS011;55930;47.412;8.790;2022-10-26T16:10:21;13.02;;;2.65;;
68888;SDS011;55930;47.412;8.790;2022-10-26T16:12:49;15.10;;;3.33;;
68888;SDS011;55930;47.412;8.790;2022-10-26T16:15:15;13.30;;;2.80;;
68888;SDS011;55930;47.412;8.790;2022-10-26T16:17:47;9.88;;;2.95;;
68888;SDS011;55930;47.412;8.790;2022-10-26T16:20:14;20.13;;;3.28;;
68888;SDS011;55930;47.412;8.790;2022-10-26T16:22:46;10.95;;;2.67;;
68888;SDS011;55930;47.412;8.790;2022-10-26T16:25:16;11.75;;;2.80;;
68888;SDS011;55930;47.412;8.790;2022-10-26T16:27:44;11.90;;;2.60;;
68888;SDS011;55930;47.412;8.790;2022-10-26T16:30:09;14.13;;;2.53;;
68888;SDS011;55930;47.412;8.790;2022-10-26T16:32:37;14.75;;;3.40;;
68888;SDS011;55930;47.412;8.790;2022-10-26T16:35:05;13.73;;;3.28;;
68888;SDS011;55930;47.412;8.790;2022-10-26T16:37:31;15.65;;;3.00;;
68888;SDS011;55930;47.412;8.790;2022-10-26T16:39:57;14.88;;;3.08;;
68888;SDS011;55930;47.412;8.790;2022-10-26T16:42:23;12.20;;;2.65;;
68888;SDS011;55930;47.412;8.790;2022-10-26T16:44:48;11.95;;;2.90;;
68888;SDS011;55930;47.412;8.790;2022-10-26T16:47:13;13.45;;;4.60;;
68888;SDS011;55930;47.412;8.790;2022-10-26T16:49:41;14.32;;;3.85;;
68888;SDS011;55930;47.412;8.790;2022-10-26T16:52:08;14.07;;;2.92;;
68888;SDS011;55930;47.412;8.790;2022-10-26T16:54:34;17.33;;;3.40;;
68888;SDS011;55930;47.412;8.790;2022-10-26T16:57:03;11.95;;;2.80;;
68888;SDS011;55930;47.412;8.790;2022-10-26T16:59:29;11.10;;;3.20;;
68888;SDS011;55930;47.412;8.790;2022-10-26T17:01:54;15.30;;;3.10;;
68888;SDS011;55930;47.412;8.790;2022-10-26T17:04:20;25.38;;;3.50;;
68888;SDS011;55930;47.412;8.790;2022-10-26T17:06:45;12.73;;;3.25;;
68888;SDS011;55930;47.412;8.790;2022-10-26T17:09:10;14.35;;;2.90;;
68888;SDS011;55930;47.412;8.790;2022-10-26T17:11:38;15.63;;;3.60;;
68888;SDS011;55930;47.412;8.790;2022-10-26T17:14:04;18.05;;;3.58;;
68888;SDS011;55930;47.412;8.790;2022-10-26T17:16:29;16.30;;;4.22;;
68888;SDS011;55930;47.412;8.790;2022-10-26T17:19:01;15.05;;;3.40;;
68888;SDS011;55930;47.412;8.790;2022-10-26T17:21:30;16.77;;;3.75;;
68888;SDS011;55930;47.412;8.790;2022-10-26T17:23:58;21.73;;;3.75;;
68888;SDS011;55930;47.412;8.790;2022-10-26T17:26:23;11.77;;;2.95;;
68888;SDS011;55930;47.412;8.790;2022-10-26T17:31:23;11.88;;;2.97;;
68888;SDS011;55930;47.412;8.790;2022-10-26T17:33:49;16.25;;;2.88;;
68888;SDS011;55930;47.412;8.790;2022-10-26T17:36:16;19.85;;;3.88;;
68888;SDS011;55930;47.412;8.790;2022-10-26T17:38:44;15.45;;;3.80;;
68888;SDS011;55930;47.412;8.790;2022-10-26T17:41:14;17.90;;;3.58;;
68888;SDS011;55930;47.412;8.790;2022-10-26T17:43:41;18.40;;;4.35;;
68888;SDS011;55930;47.412;8.790;2022-10-26T17:46:09;23.42;;;4.47;;
68888;SDS011;55930;47.412;8.790;2022-10-26T17:48:36;16.08;;;3.50;;